Time;durP1;ratioP1;P1;durP2;ratioP2;P2;SDS_P1;SDS_P2;PMS_P1;PMS_P2;Temp;Humidity;BMP_temperature;BMP_pressure;BME280_temperature;BME280_humidity;BME280_pressure;Samples;Min_cycle;Max_cycle;Signal;HPM_P1;HPM_P2
2023/06/15 00:01:04;;;;;;;5.82;3.05;;;;;;;-145.41;100.00;58600.66;4946453;29;20058;-73
2023/06/15 00:03:30;;;;;;;4.07;2.58;;;;;;;-145.41;100.00;58600.66;4948936;29;20043;-74
2023/06/15 00:05:56;;;;;;;4.13;2.33;;;;;;;-145.41;100.00;58600.66;4946540;29;20039;-74
2023/06/15 00:08:21;;;;;;;5.47;2.47;;;;;;;-145.41;100.00;58600.66;4947108;28;20082;-74
2023/06/15 00:10:47;;;;;;;4.80;2.53;;;;;;;-145.41;100.00;58600.66;4950343;29;20048;-73
2023/06/15 00:13:13;;;;;;;3.40;2.15;;;;;;;-145.41;100.00;58600.66;4948204;29;20067;-74
2023/06/15 00:15:39;;;;;;;4.00;2.15;;;;;;;-145.41;100.00;58600.66;4947042;29;20102;-74
2023/06/15 00:18:05;;;;;;;5.90;2.40;;;;;;;-145.41;100.00;58600.66;4948175;28;20807;-74
2023/06/15 00:20:31;;;;;;;4.07;2.70;;;;;;;-145.41;100.00;58600.66;4942380;28;20046;-74
2023/06/15 00:22:58;;;;;;;4.32;2.28;;;;;;;-145.41;100.00;58600.66;4948353;29;20446;-73
2023/06/15 00:25:23;;;;;;;4.57;2.75;;;;;;;-145.41;100.00;58600.66;4950489;29;20042;-74
2023/06/15 00:27:49;;;;;;;6.90;2.92;;;;;;;-145.41;100.00;58600.66;4950097;29;20031;-74
2023/06/15 00:30:15;;;;;;;5.05;2.63;;;;;;;-145.41;100.00;58600.66;4946530;29;20051;-73
2023/06/15 00:32:40;;;;;;;4.13;2.55;;;;;;;-145.41;100.00;58600.66;4947714;29;20051;-74
2023/06/15 00:35:06;;;;;;;5.95;2.38;;;;;;;-145.41;100.00;58600.66;4943602;29;20057;-74
2023/06/15 00:37:31;;;;;;;3.80;2.42;;;;;;;-145.41;100.00;58600.66;4949536;29;20107;-74
2023/06/15 00:39:57;;;;;;;5.03;2.40;;;;;;;-145.41;100.00;58600.66;4947241;28;20042;-73
2023/06/15 00:42:22;;;;;;;4.32;2.70;;;;;;;-145.41;100.00;58600.66;4945483;29;20462;-74
2023/06/15 00:44:47;;;;;;;5.20;2.50;;;;;;;-145.41;100.00;58600.66;4945492;29;20039;-74
2023/06/15 00:47:17;;;;;;;5.05;2.38;;;;;;;-145.41;100.00;58600.66;4947992;29;20035;-74
2023/06/15 00:49:42;;;;;;;5.72;2.63;;;;;;;-145.41;100.00;58600.66;4935620;29;20062;-74
2023/06/15 00:52:08;;;;;;;3.75;2.22;;;;;;;-145.41;100.00;58600.66;4949063;29;20035;-73
2023/06/15 00:54:34;;;;;;;4.00;2.83;;;;;;;-145.41;100.00;58600.66;4952360;29;20398;-73
2023/06/15 00:57:00;;;;;;;5.32;2.63;;;;;;;-145.41;100.00;58600.66;4944826;29;20510;-73
2023/06/15 00:59:28;;;;;;;4.43;2.60;;;;;;;-145.41;100.00;58600.66;4944005;29;20383;-74
2023/06/15 01:01:54;;;;;;;4.43;2.85;;;;;;;-145.41;100.00;58600.66;4945808;29;20074;-73
2023/06/15 01:04:26;;;;;;;3.70;2.60;;;;;;;-145.41;100.00;58600.66;4950897;29;20521;-74
2023/06/15 01:07:02;;;;;;;4.43;2.40;;;;;;;-145.41;100.00;58600.66;4947313;29;20043;-74
2023/06/15 01:09:35;;;;;;;4.80;2.58;;;;;;;-145.41;100.00;58600.66;4946502;29;20063;-74
2023/06/15 01:12:05;;;;;;;4.20;2.83;;;;;;;-145.41;100.00;58600.66;4942169;29;20510;-74
2023/06/15 01:14:32;;;;;;;5.25;3.00;;;;;;;-145.41;100.00;58600.66;4947463;29;20031;-74
2023/06/15 01:17:02;;;;;;;4.95;2.70;;;;;;;-145.41;100.00;58600.66;4948436;29;20046;-73
2023/06/15 01:19:57;;;;;;;5.57;3.17;;;;;;;-145.41;100.00;58600.66;4944316;29;20051;-74
2023/06/15 01:22:55;;;;;;;5.28;2.75;;;;;;;-145.41;100.00;58600.66;4948470;29;20051;-73
2023/06/15 01:25:33;;;;;;;4.40;2.78;;;;;;;-145.41;100.00;58600.66;4946419;29;20043;-74
2023/06/15 01:28:01;;;;;;;4.95;2.83;;;;;;;-145.41;100.00;58600.66;4945287;28;20509;-74
2023/06/15 01:30:33;;;;;;;6.95;3.13;;;;;;;-145.41;100.00;58600.66;4943918;29;20039;-74
2023/06/15 01:32:58;;;;;;;;;;;;;;;-145.41;100.00;58600.66;4946550;29;20128;-74
2023/06/15 01:35:24;;;;;;;8.60;3.28;;;;;;;-145.41;100.00;58600.66;4952324;29;19918;-74
2023/06/15 01:37:49;;;;;;;6.38;2.70;;;;;;;-145.41;100.00;58600.66;4950221;29;20038;-74
2023/06/15 01:40:16;;;;;;;5.88;2.90;;;;;;;-145.41;100.00;58600.66;4947420;28;20062;-74
2023/06/15 01:42:42;;;;;;;5.32;2.80;;;;;;;-145.41;100.00;58600.66;4947947;29;20114;-74
2023/06/15 01:45:09;;;;;;;6.63;3.30;;;;;;;-145.41;100.00;58600.66;4938597;29;20475;-74
2023/06/15 01:47:36;;;;;;;6.95;3.40;;;;;;;-145.41;100.00;58600.66;4950765;29;20043;-74
2023/06/15 01:50:02;;;;;;;5.47;3.10;;;;;;;-145.41;100.00;58600.66;4951011;28;20046;-74
2023/06/15 01:52:27;;;;;;;6.13;3.38;;;;;;;-145.41;100.00;58600.66;4944002;29;20031;-74
2023/06/15 01:54:53;;;;;;;4.43;3.08;;;;;;;-145.41;100.00;58600.66;4953445;29;20468;-74
2023/06/15 01:57:20;;;;;;;5.65;3.03;;;;;;;-145.41;100.00;58600.66;4953966;29;20398;-74
2023/06/15 01:59:45;;;;;;;5.47;3.38;;;;;;;-145.41;100.00;58600.66;4946536;29;20036;-74
2023/06/15 02:02:11;;;;;;;6.43;3.70;;;;;;;-145.41;100.00;58600.66;4947539;29;20461;-74
2023/06/15 02:04:36;;;;;;;7.32;4.45;;;;;;;-145.41;100.00;58600.66;4953812;28;20111;-74
2023/06/15 02:07:02;;;;;;;5.18;3.65;;;;;;;-145.41;100.00;58600.66;4954783;29;20071;-74
2023/06/15 02:09:28;;;;;;;5.65;3.95;;;;;;;-145.41;100.00;58600.66;4950918;29;20031;-74
2023/06/15 02:11:53;;;;;;;5.72;3.85;;;;;;;-145.41;100.00;58600.66;4950063;29;20519;-74
2023/06/15 02:14:23;;;;;;;5.43;3.83;;;;;;;-145.41;100.00;58600.66;4953799;29;20027;-74
2023/06/15 02:16:49;;;;;;;6.25;4.00;;;;;;;-145.41;100.00;58600.66;4950996;29;20042;-74
2023/06/15 02:19:21;;;;;;;11.88;3.85;;;;;;;-145.41;100.00;58600.66;4947585;29;20126;-74
2023/06/15 02:21:47;;;;;;;6.07;3.53;;;;;;;-145.41;100.00;58600.66;4953229;29;20125;-74
2023/06/15 02:24:12;;;;;;;5.53;3.50;;;;;;;-145.41;100.00;58600.66;4953033;29;20499;-74
2023/06/15 02:26:40;;;;;;;5.68;3.50;;;;;;;-145.41;100.00;58600.66;4953743;28;20119;-74
2023/06/15 02:29:05;;;;;;;4.80;3.53;;;;;;;-145.41;100.00;58600.66;4954482;28;20031;-73
2023/06/15 02:31:31;;;;;;;7.13;3.60;;;;;;;-145.41;100.00;58600.66;4952265;29;20043;-74
2023/06/15 02:33:56;;;;;;;8.77;3.70;;;;;;;-145.41;100.00;58600.66;4954918;29;20075;-74
2023/06/15 02:36:22;;;;;;;6.47;3.17;;;;;;;-145.41;100.00;58600.66;4953664;29;20042;-74
2023/06/15 02:38:49;;;;;;;6.43;3.25;;;;;;;-145.41;100.00;58600.66;4933763;29;20050;-73
2023/06/15 02:41:14;;;;;;;5.05;3.28;;;;;;;-145.41;100.00;58600.66;4954838;28;20039;-74
2023/06/15 02:43:40;;;;;;;6.93;5.40;;;;;;;-145.41;100.00;58600.66;4953251;29;20037;-74
2023/06/15 02:46:05;;;;;;;5.68;4.22;;;;;;;-145.41;100.00;58600.66;4953477;29;20043;-74
2023/06/15 02:48:30;;;;;;;5.15;3.53;;;;;;;-145.41;100.00;58600.66;4954135;28;20027;-74
2023/06/15 02:50:56;;;;;;;6.95;2.90;;;;;;;-145.41;100.00;58600.66;4947129;28;20518;-73
2023/06/15 02:53:23;;;;;;;6.15;3.30;;;;;;;-145.41;100.00;58600.66;4952556;29;20406;-74
2023/06/15 02:55:52;;;;;;;5.22;3.45;;;;;;;-145.41;100.00;58600.66;4935285;29;20554;-74
2023/06/15 02:58:20;;;;;;;6.05;3.55;;;;;;;-145.41;100.00;58600.66;4953126;28;20410;-73
2023/06/15 03:00:53;;;;;;;8.90;4.10;;;;;;;-145.41;100.00;58600.66;4952564;29;20185;-73
2023/06/15 03:03:40;;;;;;;4.15;3.03;;;;;;;-145.41;100.00;58600.66;4949744;29;20396;-74
2023/06/15 03:06:08;;;;;;;6.97;3.42;;;;;;;-145.41;100.00;58600.66;4951150;29;20042;-74
2023/06/15 03:08:36;;;;;;;6.07;3.80;;;;;;;-145.41;100.00;58600.66;4953245;29;20435;-74
2023/06/15 03:11:20;;;;;;;6.88;3.80;;;;;;;-145.41;100.00;58600.66;4951242;29;20177;-74
2023/06/15 03:13:46;;;;;;;5.00;3.60;;;;;;;-145.41;100.00;58600.66;4950947;29;20506;-74
2023/06/15 03:16:15;;;;;;;5.97;4.03;;;;;;;-145.41;100.00;58600.66;4949990;29;20038;-74
2023/06/15 03:18:42;;;;;;;9.70;4.50;;;;;;;-145.41;100.00;58600.66;4934120;29;20411;-73
2023/06/15 03:21:08;;;;;;;8.48;4.68;;;;;;;-145.41;100.00;58600.66;4947737;28;20051;-74
2023/06/15 03:23:34;;;;;;;9.68;3.53;;;;;;;-145.41;100.00;58600.66;4950880;29;20031;-76
2023/06/15 03:25:59;;;;;;;6.70;3.40;;;;;;;-145.41;100.00;58600.66;4950146;29;20039;-76
2023/06/15 03:28:27;;;;;;;5.18;3.90;;;;;;;-145.41;100.00;58600.66;4948854;29;20043;-76
2023/06/15 03:30:56;;;;;;;7.82;3.45;;;;;;;-145.41;100.00;58600.66;4936447;29;20031;-76
2023/06/15 03:33:22;;;;;;;5.97;2.80;;;;;;;-145.41;100.00;58600.66;4948136;29;20118;-76
2023/06/15 03:35:49;;;;;;;4.50;3.00;;;;;;;-145.41;100.00;58600.66;4930367;29;20059;-76
2023/06/15 03:38:16;;;;;;;4.97;2.85;;;;;;;-145.41;100.00;58600.66;4948553;29;20055;-75
2023/06/15 03:40:45;;;;;;;6.13;4.00;;;;;;;-145.41;100.00;58600.66;4930507;29;20040;-76
2023/06/15 03:43:11;;;;;;;8.27;4.72;;;;;;;-145.41;100.00;58600.66;4946988;29;20518;-76
2023/06/15 03:45:39;;;;;;;5.75;3.95;;;;;;;-145.41;100.00;58600.66;4951102;29;20031;-76
2023/06/15 03:48:06;;;;;;;8.30;4.15;;;;;;;-145.41;100.00;58600.66;4950974;28;20098;-76
2023/06/15 03:50:32;;;;;;;5.63;3.70;;;;;;;-145.41;100.00;58600.66;4947880;29;20031;-76
2023/06/15 03:52:58;;;;;;;4.68;3.58;;;;;;;-145.41;100.00;58600.66;4952334;29;20042;-76
2023/06/15 03:55:25;;;;;;;12.32;3.85;;;;;;;-145.41;100.00;58600.66;4952119;28;20410;-75
2023/06/15 03:57:50;;;;;;;8.10;3.80;;;;;;;-145.41;100.00;58600.66;4934950;29;20027;-77
2023/06/15 04:00:16;;;;;;;7.80;4.75;;;;;;;-145.41;100.00;58600.66;4952495;28;20035;-76
2023/06/15 04:02:46;;;;;;;5.80;3.85;;;;;;;-145.41;100.00;58600.66;4952085;28;20410;-76
2023/06/15 04:05:13;;;;;;;6.25;4.45;;;;;;;-145.41;100.00;58600.66;4945520;28;20572;-76
2023/06/15 04:07:39;;;;;;;8.88;4.38;;;;;;;-145.41;100.00;58600.66;4947046;29;20126;-76
2023/06/15 04:10:06;;;;;;;6.53;4.13;;;;;;;-145.41;100.00;58600.66;4951255;28;20038;-76
2023/06/15 04:12:31;;;;;;;6.43;3.88;;;;;;;-145.41;100.00;58600.66;4948686;28;20055;-77
2023/06/15 04:14:56;;;;;;;6.60;4.03;;;;;;;-145.41;100.00;58600.66;4950828;29;20645;-76
2023/06/15 04:17:22;;;;;;;5.78;3.80;;;;;;;-145.41;100.00;58600.66;4938943;29;20038;-76
2023/06/15 04:19:49;;;;;;;8.52;5.57;;;;;;;-145.41;100.00;58600.66;4948231;28;20564;-76
2023/06/15 04:22:14;;;;;;;6.07;4.30;;;;;;;-145.41;100.00;58600.66;4943712;29;20027;-76
2023/06/15 04:24:40;;;;;;;19.50;15.70;;;;;;;-145.41;100.00;58600.66;4938901;29;20085;-76
2023/06/15 04:27:06;;;;;;;8.02;5.47;;;;;;;-145.41;100.00;58600.66;4933826;29;20031;-76
2023/06/15 04:29:33;;;;;;;12.30;10.15;;;;;;;-145.41;100.00;58600.66;4947266;29;20035;-76
2023/06/15 04:31:58;;;;;;;7.68;6.10;;;;;;;-145.41;100.00;58600.66;4947181;29;20034;-76
2023/06/15 04:34:29;;;;;;;11.43;5.60;;;;;;;-145.41;100.00;58600.66;4930145;29;20027;-76
2023/06/15 04:36:56;;;;;;;7.75;4.75;;;;;;;-145.41;100.00;58600.66;4943819;29;20038;-76
2023/06/15 04:39:25;;;;;;;6.95;4.13;;;;;;;-145.41;100.00;58600.66;4935063;29;20115;-77
2023/06/15 04:41:52;;;;;;;8.10;4.75;;;;;;;-145.41;100.00;58600.66;4951347;28;20039;-76
2023/06/15 04:44:18;;;;;;;6.60;4.50;;;;;;;-145.41;100.00;58600.66;4951498;28;20082;-76
2023/06/15 04:46:43;;;;;;;7.38;4.55;;;;;;;-145.41;100.00;58600.66;4941936;28;20087;-75
2023/06/15 04:49:10;;;;;;;6.55;4.60;;;;;;;-145.41;100.00;58600.66;4944558;29;20047;-76
2023/06/15 04:51:38;;;;;;;6.30;4.07;;;;;;;-145.41;100.00;58600.66;4948857;29;20502;-76
2023/06/15 04:54:04;;;;;;;5.15;3.92;;;;;;;-145.41;100.00;58600.66;4950661;28;20031;-76
2023/06/15 04:56:30;;;;;;;6.20;4.20;;;;;;;-145.41;100.00;58600.66;4939377;29;20039;-77
2023/06/15 04:58:55;;;;;;;7.15;4.60;;;;;;;-145.41;100.00;58600.66;4940209;28;20043;-76
2023/06/15 05:01:21;;;;;;;6.10;4.75;;;;;;;-145.41;100.00;58600.66;4946346;28;20475;-77
2023/06/15 05:03:46;;;;;;;6.32;4.80;;;;;;;-145.41;100.00;58600.66;4950278;29;20039;-76
2023/06/15 05:06:12;;;;;;;7.05;5.57;;;;;;;-145.41;100.00;58600.66;4949379;29;20410;-77
2023/06/15 05:08:37;;;;;;;7.47;4.20;;;;;;;-145.41;100.00;58600.66;4949663;28;20035;-76
2023/06/15 05:11:05;;;;;;;10.05;5.30;;;;;;;-145.41;100.00;58600.66;4947838;29;20031;-76
2023/06/15 05:13:31;;;;;;;8.32;5.07;;;;;;;-145.41;100.00;58600.66;4950802;28;20027;-76
2023/06/15 05:15:56;;;;;;;8.88;5.07;;;;;;;-145.41;100.00;58600.66;4952700;28;20041;-76
2023/06/15 05:18:25;;;;;;;6.38;5.05;;;;;;;-145.41;100.00;58600.66;4953127;28;20039;-77
2023/06/15 05:20:50;;;;;;;5.90;4.53;;;;;;;-145.41;100.00;58600.66;4951329;28;20031;-76
2023/06/15 05:23:18;;;;;;;5.97;4.57;;;;;;;-145.41;100.00;58600.66;4946858;29;20487;-76
2023/06/15 05:25:44;;;;;;;6.90;4.70;;;;;;;-145.41;100.00;58600.66;4952656;29;20032;-76
2023/06/15 05:28:10;;;;;;;5.68;4.45;;;;;;;-145.41;100.00;58600.66;4954079;28;20031;-77
2023/06/15 05:30:39;;;;;;;7.70;4.57;;;;;;;-145.41;100.00;58600.66;4951442;28;20081;-75
2023/06/15 05:33:04;;;;;;;7.50;4.43;;;;;;;-145.41;100.00;58600.66;4952366;29;20027;-76
2023/06/15 05:35:30;;;;;;;7.38;4.72;;;;;;;-145.41;100.00;58600.66;4945882;29;20035;-76
2023/06/15 05:37:57;;;;;;;8.68;5.32;;;;;;;-145.41;100.00;58600.66;4949544;28;20028;-76
2023/06/15 05:40:23;;;;;;;7.10;4.93;;;;;;;-145.41;100.00;58600.66;4953674;29;20126;-76
2023/06/15 05:42:49;;;;;;;9.38;4.97;;;;;;;-145.41;100.00;58600.66;4951769;28;20167;-76
2023/06/15 05:45:14;;;;;;;7.88;4.97;;;;;;;-145.41;100.00;58600.66;4951157;29;20035;-76
2023/06/15 05:47:40;;;;;;;7.28;5.50;;;;;;;-145.41;100.00;58600.66;4952473;29;20454;-76
2023/06/15 05:50:05;;;;;;;7.03;4.70;;;;;;;-145.41;100.00;58600.66;4953239;28;20027;-76
2023/06/15 05:52:32;;;;;;;10.63;5.20;;;;;;;-145.41;100.00;58600.66;4933363;29;20039;-77
2023/06/15 05:54:57;;;;;;;6.57;5.20;;;;;;;-145.41;100.00;58600.66;4954550;28;20043;-77
2023/06/15 05:57:23;;;;;;;8.05;4.72;;;;;;;-145.41;100.00;58600.66;4954405;28;20046;-77
2023/06/15 05:59:50;;;;;;;8.63;5.07;;;;;;;-145.41;100.00;58600.66;4951215;29;20082;-76
2023/06/15 06:02:16;;;;;;;7.07;5.40;;;;;;;-145.41;100.00;58600.66;4954159;29;20031;-77
2023/06/15 06:04:42;;;;;;;8.73;4.95;;;;;;;-145.41;100.00;58600.66;4953860;28;20042;-76
2023/06/15 06:07:07;;;;;;;9.48;5.30;;;;;;;-145.41;100.00;58600.66;4950193;29;20047;-76
2023/06/15 06:09:34;;;;;;;5.82;4.55;;;;;;;-145.41;100.00;58600.66;4953552;28;20034;-76
2023/06/15 06:12:01;;;;;;;8.65;4.97;;;;;;;-145.41;100.00;58600.66;4938146;29;20023;-77
2023/06/15 06:14:28;;;;;;;12.48;6.05;;;;;;;-145.41;100.00;58600.66;4953770;28;20035;-77
2023/06/15 06:16:54;;;;;;;8.38;5.47;;;;;;;-145.41;100.00;58600.66;4953202;28;20402;-77
2023/06/15 06:19:20;;;;;;;6.63;5.03;;;;;;;-145.41;100.00;58600.66;4950398;28;20040;-76
2023/06/15 06:21:46;;;;;;;8.50;6.88;;;;;;;-145.41;100.00;58600.66;4945094;29;20505;-76
2023/06/15 06:24:11;;;;;;;7.75;5.03;;;;;;;-145.41;100.00;58600.66;4948026;28;20031;-77
2023/06/15 06:26:37;;;;;;;8.52;5.50;;;;;;;-145.41;100.00;58600.66;4945793;28;20039;-76
2023/06/15 06:29:03;;;;;;;10.07;5.60;;;;;;;-145.41;100.00;58600.66;4950285;28;20410;-76
2023/06/15 06:31:28;;;;;;;6.60;5.05;;;;;;;-145.41;100.00;58600.66;4953896;28;20039;-77
2023/06/15 06:33:54;;;;;;;8.85;5.10;;;;;;;-145.41;100.00;58600.66;4952452;29;20047;-76
2023/06/15 06:36:19;;;;;;;8.63;5.05;;;;;;;-145.41;100.00;58600.66;4951894;28;20122;-76
2023/06/15 06:38:44;;;;;;;7.38;5.00;;;;;;;-145.41;100.00;58600.66;4945569;28;20039;-76
2023/06/15 06:41:10;;;;;;;6.15;4.80;;;;;;;-145.41;100.00;58600.66;4953157;29;20034;-76
2023/06/15 06:43:35;;;;;;;7.75;4.97;;;;;;;-145.41;100.00;58600.66;4954902;29;20035;-76
2023/06/15 06:46:01;;;;;;;8.98;4.70;;;;;;;-145.41;100.00;58600.66;4953022;28;20042;-77
2023/06/15 06:48:26;;;;;;;6.43;4.60;;;;;;;-145.41;100.00;58600.66;4951190;28;20070;-76
2023/06/15 06:50:52;;;;;;;8.80;5.25;;;;;;;-145.41;100.00;58600.66;4948652;28;20049;-77
2023/06/15 06:53:17;;;;;;;7.38;4.85;;;;;;;-145.41;100.00;58600.66;4954812;29;20098;-76
2023/06/15 06:55:44;;;;;;;6.93;5.15;;;;;;;-145.41;100.00;58600.66;4944769;28;20039;-77
2023/06/15 06:58:11;;;;;;;9.90;5.38;;;;;;;-145.41;100.00;58600.66;4951499;28;20408;-76
2023/06/15 07:00:36;;;;;;;7.93;6.20;;;;;;;-145.41;100.00;58600.66;4946819;29;20094;-76
2023/06/15 07:03:02;;;;;;;10.77;5.15;;;;;;;-145.41;100.00;58600.66;4949002;29;20035;-77
2023/06/15 07:05:28;;;;;;;6.40;4.45;;;;;;;-145.41;100.00;58600.66;4948810;29;20035;-76
2023/06/15 07:07:53;;;;;;;6.85;4.55;;;;;;;-145.41;100.00;58600.66;4945489;29;20051;-77
2023/06/15 07:10:18;;;;;;;8.57;5.88;;;;;;;-145.41;100.00;58600.66;4944330;29;20118;-77
2023/06/15 07:12:44;;;;;;;8.20;5.88;;;;;;;-145.41;100.00;58600.66;4950062;29;20035;-77
2023/06/15 07:15:09;;;;;;;12.60;6.90;;;;;;;-145.41;100.00;58600.66;4950687;29;20102;-76
2023/06/15 07:17:35;;;;;;;8.48;4.07;;;;;;;-145.41;100.00;58600.66;4953068;29;20561;-76
2023/06/15 07:20:00;;;;;;;9.98;5.40;;;;;;;-145.41;100.00;58600.66;4950248;28;20036;-77
2023/06/15 07:22:26;;;;;;;8.98;6.40;;;;;;;-145.41;100.00;58600.66;4951122;29;20035;-77
2023/06/15 07:24:51;;;;;;;9.00;5.20;;;;;;;-145.41;100.00;58600.66;4950390;29;20047;-77
2023/06/15 07:27:18;;;;;;;8.18;4.78;;;;;;;-145.41;100.00;58600.66;4950111;29;20023;-77
2023/06/15 07:29:43;;;;;;;7.47;3.72;;;;;;;-145.41;100.00;58600.66;4950052;28;20498;-76
2023/06/15 07:32:09;;;;;;;8.15;3.50;;;;;;;-145.41;100.00;58600.66;4947796;29;20070;-76
2023/06/15 07:34:34;;;;;;;7.13;4.05;;;;;;;-145.41;100.00;58600.66;4945909;29;20035;-77
2023/06/15 07:37:00;;;;;;;7.40;4.32;;;;;;;-145.41;100.00;58600.66;4948506;29;20043;-77
2023/06/15 07:39:25;;;;;;;11.73;7.78;;;;;;;-145.41;100.00;58600.66;4950690;28;20043;-77
2023/06/15 07:41:50;;;;;;;7.57;5.65;;;;;;;-145.41;100.00;58600.66;4948024;29;20046;-77
2023/06/15 07:44:16;;;;;;;9.60;6.90;;;;;;;-145.41;100.00;58600.66;4948079;29;20035;-77
2023/06/15 07:46:42;;;;;;;9.48;5.82;;;;;;;-145.41;100.00;58600.66;4953651;29;20078;-77
2023/06/15 07:49:07;;;;;;;5.85;4.13;;;;;;;-145.41;100.00;58600.66;4941101;29;20130;-77
2023/06/15 07:51:34;;;;;;;9.07;3.55;;;;;;;-145.41;100.00;58600.66;4943823;29;20070;-77
2023/06/15 07:54:00;;;;;;;6.22;4.13;;;;;;;-145.41;100.00;58600.66;4944971;29;20035;-75
2023/06/15 07:56:26;;;;;;;7.25;4.60;;;;;;;-145.41;100.00;58600.66;4948782;29;20024;-77
2023/06/15 07:58:51;;;;;;;5.25;4.07;;;;;;;-145.41;100.00;58600.66;4950896;28;20047;-77
2023/06/15 08:01:17;;;;;;;8.13;3.83;;;;;;;-145.41;100.00;58600.66;4948253;29;20038;-76
2023/06/15 08:03:43;;;;;;;6.53;3.88;;;;;;;-145.41;100.00;58600.66;4949422;29;20031;-77
2023/06/15 08:06:08;;;;;;;5.70;3.75;;;;;;;-145.41;100.00;58600.66;4946515;29;20036;-77
2023/06/15 08:08:33;;;;;;;6.95;3.60;;;;;;;-145.41;100.00;58600.66;4945933;28;20038;-77
2023/06/15 08:11:00;;;;;;;12.13;4.03;;;;;;;-145.41;100.00;58600.66;4948375;29;20090;-77
2023/06/15 08:13:25;;;;;;;5.68;3.60;;;;;;;-145.41;100.00;58600.66;4952668;28;20038;-77
2023/06/15 08:15:51;;;;;;;5.82;3.70;;;;;;;-145.41;100.00;58600.66;4946665;29;20032;-77
2023/06/15 08:18:16;;;;;;;9.07;4.18;;;;;;;-145.41;100.00;58600.66;4951011;28;20055;-77
2023/06/15 08:20:42;;;;;;;7.68;4.90;;;;;;;-145.41;100.00;58600.66;4946150;28;20039;-76
2023/06/15 08:23:07;;;;;;;7.35;4.45;;;;;;;-145.41;100.00;58600.66;4949643;29;20027;-76
2023/06/15 08:25:34;;;;;;;10.02;3.90;;;;;;;-145.41;100.00;58600.66;4952998;29;20039;-76
2023/06/15 08:28:00;;;;;;;5.68;4.05;;;;;;;-145.41;100.00;58600.66;4951722;29;20114;-77
2023/06/15 08:30:26;;;;;;;6.63;3.47;;;;;;;-145.41;100.00;58600.66;4952420;28;20046;-77
2023/06/15 08:32:51;;;;;;;9.15;3.75;;;;;;;-145.41;100.00;58600.66;4949790;29;20035;-76
2023/06/15 08:35:16;;;;;;;6.60;3.63;;;;;;;-145.41;100.00;58600.66;4952294;29;20027;-76
2023/06/15 08:37:42;;;;;;;8.02;3.55;;;;;;;-145.41;100.00;58600.66;4950127;29;20054;-76
2023/06/15 08:40:08;;;;;;;6.38;3.50;;;;;;;-145.41;100.00;58600.66;4952281;28;20078;-76
2023/06/15 08:42:33;;;;;;;9.88;4.05;;;;;;;-145.41;100.00;58600.66;4952781;29;20063;-77
2023/06/15 08:45:03;;;;;;;7.22;4.32;;;;;;;-145.41;100.00;58600.66;4950391;29;20035;-77
2023/06/15 08:47:31;;;;;;;5.47;3.67;;;;;;;-145.41;100.00;58600.66;4949484;29;20469;-77
2023/06/15 08:49:59;;;;;;;10.27;4.47;;;;;;;-145.41;100.00;58600.66;4947418;28;20384;-76
2023/06/15 08:52:26;;;;;;;6.47;3.97;;;;;;;-145.41;100.00;58600.66;4952565;29;20054;-77
2023/06/15 08:54:52;;;;;;;6.50;3.70;;;;;;;-145.41;100.00;58600.66;4947668;29;20043;-77
2023/06/15 08:57:17;;;;;;;9.60;3.55;;;;;;;-145.41;100.00;58600.66;4942001;29;20027;-77
2023/06/15 08:59:43;;;;;;;6.22;3.35;;;;;;;-145.41;100.00;58600.66;4946126;28;20027;-77
2023/06/15 09:02:20;;;;;;;7.60;4.05;;;;;;;-145.41;100.00;58600.66;4951740;29;20039;-77
2023/06/15 09:04:47;;;;;;;8.45;4.70;;;;;;;-145.41;100.00;58600.66;4948811;29;20036;-77
2023/06/15 09:07:13;;;;;;;6.15;3.70;;;;;;;-145.41;100.00;58600.66;4949944;29;20039;-77
2023/06/15 09:09:38;;;;;;;9.65;4.03;;;;;;;-145.41;100.00;58600.66;4951825;28;20031;-77
2023/06/15 09:12:06;;;;;;;7.70;4.68;;;;;;;-145.41;100.00;58600.66;4952843;29;20046;-77
2023/06/15 09:14:40;;;;;;;7.45;4.22;;;;;;;-145.41;100.00;58600.66;4952596;29;20175;-77
2023/06/15 09:17:12;;;;;;;5.53;3.50;;;;;;;-145.41;100.00;58600.66;4950353;29;20035;-76
2023/06/15 09:19:38;;;;;;;5.93;3.67;;;;;;;-145.41;100.00;58600.66;4935650;28;20051;-77
2023/06/15 09:22:07;;;;;;;6.55;3.47;;;;;;;-145.41;100.00;58600.66;4946448;29;20065;-76
2023/06/15 09:24:38;;;;;;;7.13;3.10;;;;;;;-145.41;100.00;58600.66;4951118;29;20039;-77
2023/06/15 09:27:14;;;;;;;6.93;3.10;;;;;;;-145.41;100.00;58600.66;4970677;22;22713;-79
2023/06/15 09:29:40;;;;;;;6.13;3.25;;;;;;;-145.41;100.00;58600.66;5023665;28;20044;-76
2023/06/15 09:32:06;;;;;;;11.15;4.47;;;;;;;-145.41;100.00;58600.66;5029740;28;20037;-75
2023/06/15 09:34:31;;;;;;;6.30;3.97;;;;;;;-145.41;100.00;58600.66;5012757;28;20033;-79
2023/06/15 09:36:57;;;;;;;7.95;3.25;;;;;;;-145.41;100.00;58600.66;5026737;28;20037;-80
2023/06/15 09:39:23;;;;;;;6.20;2.65;;;;;;;-145.41;100.00;58600.66;5028940;28;20034;-79
2023/06/15 09:42:01;;;;;;;4.38;3.17;;;;;;;-145.41;100.00;58600.66;5027978;28;20041;-79
2023/06/15 09:44:27;;;;;;;8.00;2.63;;;;;;;-145.41;100.00;58600.66;5029961;28;20041;-79
2023/06/15 09:46:56;;;;;;;5.45;3.00;;;;;;;-145.41;100.00;58600.66;5028163;28;20037;-79
2023/06/15 09:49:26;;;;;;;8.85;3.65;;;;;;;-145.41;100.00;58600.66;5029503;28;20041;-79
2023/06/15 09:51:52;;;;;;;6.28;2.95;;;;;;;-145.41;100.00;58600.66;5027628;28;20046;-79
2023/06/15 09:54:20;;;;;;;5.82;3.03;;;;;;;-145.41;100.00;58600.66;5029868;28;20044;-79
2023/06/15 09:56:49;;;;;;;5.63;3.00;;;;;;;-145.41;100.00;58600.66;5026751;28;20060;-80
2023/06/15 09:59:14;;;;;;;7.43;3.00;;;;;;;-145.41;100.00;58600.66;5025077;28;20045;-79
2023/06/15 10:01:41;;;;;;;6.22;3.10;;;;;;;-145.41;100.00;58600.66;5028752;28;20036;-79
2023/06/15 10:04:07;;;;;;;5.35;2.90;;;;;;;-145.41;100.00;58600.66;5033176;28;20091;-79
2023/06/15 10:06:33;;;;;;;4.32;2.47;;;;;;;-145.41;100.00;58600.66;5031601;28;20033;-79
2023/06/15 10:09:00;;;;;;;6.63;2.90;;;;;;;-145.41;100.00;58600.66;5032557;28;20052;-79
2023/06/15 10:11:27;;;;;;;8.00;3.35;;;;;;;-145.41;100.00;58600.66;5033825;28;20383;-78
2023/06/15 10:14:00;;;;;;;7.70;2.85;;;;;;;-145.41;100.00;58600.66;5033709;28;20034;-79
2023/06/15 10:16:26;;;;;;;5.47;2.72;;;;;;;-145.41;100.00;58600.66;5029568;28;20021;-80
2023/06/15 10:19:00;;;;;;;3.42;2.00;;;;;;;-145.41;100.00;58600.66;5032414;28;20037;-79
2023/06/15 10:21:28;;;;;;;5.80;2.38;;;;;;;-145.41;100.00;58600.66;5033585;28;20124;-78
2023/06/15 10:23:55;;;;;;;6.63;2.38;;;;;;;-145.41;100.00;58600.66;5034480;28;20492;-79
2023/06/15 10:26:21;;;;;;;4.05;2.20;;;;;;;-145.41;100.00;58600.66;5034331;28;20555;-79
2023/06/15 10:28:51;;;;;;;5.70;2.70;;;;;;;-145.41;100.00;58600.66;5034241;28;20044;-80
2023/06/15 10:31:30;;;;;;;5.90;2.72;;;;;;;-145.41;100.00;58600.66;5035991;28;20033;-80
2023/06/15 10:34:03;;;;;;;6.60;2.42;;;;;;;-145.41;100.00;58600.66;5034880;28;20041;-79
2023/06/15 10:36:30;;;;;;;5.40;2.33;;;;;;;-145.41;100.00;58600.66;5035860;28;20026;-79
2023/06/15 10:39:05;;;;;;;6.00;2.10;;;;;;;-145.41;100.00;58600.66;5034924;28;20033;-79
2023/06/15 10:41:31;;;;;;;7.95;2.80;;;;;;;-145.41;100.00;58600.66;5035715;28;20033;-79
2023/06/15 10:44:01;;;;;;;3.90;2.17;;;;;;;-145.41;100.00;58600.66;5032909;28;20037;-79
2023/06/15 10:46:28;;;;;;;4.45;2.28;;;;;;;-145.41;100.00;58600.66;5032593;28;20026;-79
2023/06/15 10:48:54;;;;;;;4.78;2.45;;;;;;;-145.41;100.00;58600.66;5029552;28;20049;-79
2023/06/15 10:51:21;;;;;;;6.80;2.70;;;;;;;-145.41;100.00;58600.66;5035726;28;20106;-79
2023/06/15 10:53:47;;;;;;;4.22;2.45;;;;;;;-145.41;100.00;58600.66;5013200;28;20087;-79
2023/06/15 10:56:19;;;;;;;6.10;3.38;;;;;;;-145.41;100.00;58600.66;5038594;28;20034;-78
2023/06/15 10:58:55;;;;;;;6.22;2.20;;;;;;;-145.41;100.00;58600.66;5018236;28;20037;-79
2023/06/15 11:01:23;;;;;;;4.75;2.38;;;;;;;-145.41;100.00;58600.66;5045604;28;20092;-79
2023/06/15 11:03:48;;;;;;;7.15;2.75;;;;;;;-145.41;100.00;58600.66;5046606;28;20030;-79
2023/06/15 11:06:22;;;;;;;6.53;2.65;;;;;;;-145.41;100.00;58600.66;5049292;28;20052;-79
2023/06/15 11:08:53;;;;;;;3.97;2.47;;;;;;;-145.41;100.00;58600.66;5047455;28;20457;-78